createdAt,value
2018-09-24T00:01:30.272Z,82.08
2018-09-24T00:03:59.091Z,82.19
2018-09-24T00:06:27.911Z,82.02
2018-09-24T00:08:56.739Z,82.13
2018-09-24T00:11:25.555Z,82.22
2018-09-24T00:13:54.380Z,82.28
2018-09-24T00:16:23.219Z,82.20
2018-09-24T00:18:52.052Z,82.05
2018-09-24T00:21:20.884Z,82.15
2018-09-24T00:23:49.713Z,82.17
2018-09-24T00:26:18.544Z,81.99
2018-09-24T00:28:47.363Z,82.04
2018-09-24T00:31:16.220Z,81.98
2018-09-24T00:33:45.050Z,81.92
2018-09-24T00:36:13.870Z,81.90
2018-09-24T00:38:42.683Z,81.78
2018-09-24T00:41:11.555Z,81.84
2018-09-24T00:43:40.380Z,81.77
2018-09-24T00:46:09.203Z,81.68
2018-09-24T00:48:38.027Z,81.80
2018-09-24T00:51:06.852Z,80.48
2018-09-24T00:53:35.653Z,81.36
2018-09-24T00:56:04.465Z,81.46
2018-09-24T00:58:33.290Z,81.37
2018-09-24T01:01:02.137Z,80.05
2018-09-24T01:03:30.987Z,81.12
2018-09-24T01:05:59.844Z,81.27
2018-09-24T01:08:28.692Z,81.09
2018-09-24T01:10:57.528Z,80.82
2018-09-24T01:13:26.332Z,80.75
2018-09-24T01:15:55.163Z,80.56
2018-09-24T01:18:24.032Z,80.80
2018-09-24T01:20:52.856Z,80.60
2018-09-24T01:23:21.663Z,80.44
2018-09-24T01:25:50.505Z,79.99
2018-09-24T01:28:19.332Z,80.12
2018-09-24T01:30:48.160Z,80.28
2018-09-24T01:33:16.979Z,79.57
2018-09-24T01:35:45.813Z,80.18
2018-09-24T01:38:14.673Z,80.19
2018-09-24T01:40:43.491Z,80.58
2018-09-24T01:43:12.318Z,79.49
2018-09-24T01:45:41.130Z,80.54
2018-09-24T01:48:09.970Z,80.78
2018-09-24T01:50:38.803Z,81.03
2018-09-24T01:53:08.272Z,81.04
2018-09-24T01:55:37.460Z,81.19
2018-09-24T01:58:06.328Z,81.32
2018-09-24T02:00:35.132Z,81.34
2018-09-24T02:03:04.010Z,81.45
2018-09-24T02:05:32.839Z,81.45
2018-09-24T02:08:01.665Z,81.70
2018-09-24T02:10:30.500Z,81.62
2018-09-24T02:12:59.333Z,81.64
2018-09-24T02:15:30.217Z,81.71
2018-09-24T02:17:59.073Z,81.75
2018-09-24T02:20:27.998Z,81.69
2018-09-24T02:22:56.825Z,81.68
2018-09-24T02:25:25.653Z,81.68
2018-09-24T02:27:54.459Z,82.06
2018-09-24T02:30:23.299Z,81.84
2018-09-24T02:32:52.128Z,81.79
2018-09-24T02:35:20.980Z,81.80
2018-09-24T02:37:49.796Z,81.75
2018-09-24T02:40:25.294Z,81.69
2018-09-24T02:42:54.125Z,81.66
2018-09-24T02:45:22.961Z,81.88
2018-09-24T02:47:51.774Z,81.79
2018-09-24T02:50:20.599Z,81.82
2018-09-24T02:52:49.444Z,81.83
2018-09-24T02:55:19.049Z,80.63
2018-09-24T02:57:47.878Z,81.52
2018-09-24T03:00:20.407Z,81.46
2018-09-24T03:02:49.266Z,81.57
2018-09-24T03:05:18.125Z,81.43
2018-09-24T03:07:46.973Z,79.78
2018-09-24T03:10:15.892Z,80.84
2018-09-24T03:12:50.199Z,80.98
2018-09-24T03:15:19.131Z,81.17
2018-09-24T03:17:48.006Z,81.25
2018-09-24T03:20:16.813Z,81.21
2018-09-24T03:22:45.631Z,81.51
2018-09-24T03:25:17.910Z,81.21
2018-09-24T03:27:46.931Z,80.91
2018-09-24T03:30:15.996Z,81.17
2018-09-24T03:32:44.844Z,81.40
2018-09-24T03:35:13.660Z,81.43
2018-09-24T03:37:42.510Z,81.39
2018-09-24T03:40:11.320Z,81.45
2018-09-24T03:42:40.173Z,81.54
2018-09-24T03:45:08.986Z,81.56
2018-09-24T03:47:37.798Z,81.57
2018-09-24T03:50:06.686Z,81.46
2018-09-24T03:52:35.508Z,81.58
2018-09-24T03:55:04.360Z,81.59
2018-09-24T03:57:33.199Z,81.78
2018-09-24T04:00:02.167Z,81.84
2018-09-24T04:02:31.006Z,81.91
2018-09-24T04:05:17.965Z,82.10
2018-09-24T04:08:04.439Z,81.87
2018-09-24T04:10:51.186Z,81.63
2018-09-24T04:13:37.533Z,81.81
2018-09-24T04:16:24.319Z,81.76
2018-09-24T04:19:10.691Z,81.72
2018-09-24T04:21:57.181Z,81.62
2018-09-24T04:24:43.984Z,82.06
2018-09-24T04:27:30.556Z,81.81
2018-09-24T04:30:17.305Z,81.91
2018-09-24T04:33:03.860Z,82.29
2018-09-24T04:35:50.211Z,80.37
2018-09-24T04:38:36.956Z,81.15
2018-09-24T04:41:23.515Z,81.40
2018-09-24T04:44:09.973Z,81.64
2018-09-24T04:46:56.708Z,81.83
2018-09-24T04:49:43.271Z,81.96
2018-09-24T04:52:30.083Z,81.99
2018-09-24T04:55:16.760Z,81.79
2018-09-24T04:58:03.425Z,81.69
2018-09-24T05:00:50.073Z,81.74
2018-09-24T05:03:36.946Z,81.00
2018-09-24T05:06:23.611Z,81.75
2018-09-24T05:09:10.155Z,81.62
2018-09-24T05:11:57.028Z,81.58
2018-09-24T05:14:43.750Z,81.73
2018-09-24T05:17:30.565Z,81.79
2018-09-24T05:20:17.192Z,81.75
2018-09-24T05:23:03.500Z,81.36
2018-09-24T05:25:50.246Z,81.46
2018-09-24T05:28:36.867Z,81.61
2018-09-24T05:31:23.659Z,80.18
2018-09-24T05:34:10.010Z,81.33
2018-09-24T05:36:56.557Z,81.58
2018-09-24T05:39:43.021Z,81.67
2018-09-24T05:42:29.396Z,81.69
2018-09-24T05:45:15.911Z,81.66
2018-09-24T05:48:02.988Z,81.81
2018-09-24T05:50:49.572Z,81.71
2018-09-24T05:53:36.038Z,81.64
2018-09-24T05:56:22.836Z,81.62
2018-09-24T05:59:09.567Z,81.59
2018-09-24T06:01:56.102Z,81.73
2018-09-24T06:04:43.128Z,81.55
2018-09-24T06:07:29.401Z,81.50
2018-09-24T06:10:16.003Z,81.44
2018-09-24T06:13:02.992Z,81.25
2018-09-24T06:15:49.538Z,81.49
2018-09-24T06:18:36.418Z,81.59
2018-09-24T06:21:23.296Z,81.85
2018-09-24T06:24:09.646Z,81.71
2018-09-24T06:26:56.394Z,81.90
2018-09-24T06:29:42.818Z,81.85
2018-09-24T06:32:29.153Z,81.83
2018-09-24T06:35:15.733Z,82.10
2018-09-24T06:38:02.293Z,82.53
2018-09-24T06:40:49.347Z,82.46
2018-09-24T06:43:35.880Z,82.70
2018-09-24T06:46:22.251Z,82.53
2018-09-24T06:49:09.219Z,82.32
2018-09-24T06:51:55.975Z,82.19
2018-09-24T06:54:42.334Z,82.29
2018-09-24T06:57:29.320Z,81.95
2018-09-24T07:00:15.869Z,81.60
2018-09-24T07:03:02.703Z,81.59
2018-09-24T07:05:49.696Z,80.61
2018-09-24T07:08:36.530Z,80.87
2018-09-24T07:11:22.982Z,80.77
2018-09-24T07:14:09.806Z,80.70
2018-09-24T07:16:56.120Z,80.52
2018-09-24T07:19:42.915Z,80.65
2018-09-24T07:22:29.422Z,80.46
2018-09-24T07:25:15.953Z,80.48
2018-09-24T07:28:02.692Z,79.89
2018-09-24T07:30:49.272Z,78.96
2018-09-24T07:33:35.782Z,78.65
2018-09-24T07:36:22.355Z,78.54
2018-09-24T07:39:08.942Z,78.89
2018-09-24T07:41:55.328Z,79.19
2018-09-24T07:44:42.183Z,79.12
2018-09-24T07:47:28.822Z,78.94
2018-09-24T07:50:15.179Z,78.65
2018-09-24T07:53:01.988Z,78.07
2018-09-24T07:55:48.633Z,76.93
2018-09-24T07:58:35.597Z,76.66
2018-09-24T08:01:22.498Z,75.50
2018-09-24T08:04:09.125Z,70.07
2018-09-24T08:06:55.520Z,63.79
2018-09-24T08:09:42.315Z,62.17
2018-09-24T08:12:28.865Z,63.34
2018-09-24T08:15:15.697Z,64.56
2018-09-24T08:18:02.022Z,65.86
2018-09-24T08:20:48.331Z,65.62
2018-09-24T08:23:35.203Z,66.33
2018-09-24T08:26:21.957Z,66.01
2018-09-24T08:29:08.569Z,66.91
2018-09-24T08:31:55.623Z,66.97
2018-09-24T08:34:42.438Z,66.29
2018-09-24T08:37:29.270Z,66.27
2018-09-24T08:40:15.911Z,65.92
2018-09-24T08:43:02.421Z,66.57
2018-09-24T08:45:48.910Z,66.42
2018-09-24T08:48:35.957Z,66.76
2018-09-24T08:51:22.859Z,67.28
2018-09-24T08:54:09.723Z,66.76
2018-09-24T08:57:15.298Z,66.20
2018-09-24T09:00:02.165Z,65.92
2018-09-24T09:02:49.333Z,64.98
2018-09-24T09:05:36.139Z,64.66
2018-09-24T09:08:23.036Z,63.70
2018-09-24T09:11:09.843Z,63.06
2018-09-24T09:13:56.482Z,63.17
2018-09-24T09:16:42.967Z,63.56
2018-09-24T09:19:29.865Z,61.48
2018-09-24T09:22:16.687Z,60.65
2018-09-24T09:25:03.237Z,61.21
2018-09-24T09:27:50.003Z,57.56
2018-09-24T09:30:36.765Z,54.71
2018-09-24T09:33:23.797Z,51.31
2018-09-24T09:36:10.607Z,48.21
2018-09-24T09:38:56.875Z,51.87
2018-09-24T09:41:43.365Z,53.68
2018-09-24T09:44:30.205Z,52.65
2018-09-24T09:47:16.529Z,48.24
2018-09-24T09:50:03.420Z,44.55
2018-09-24T09:52:50.102Z,41.76
2018-09-24T09:55:36.767Z,33.92
2018-09-24T09:58:23.324Z,35.10
2018-09-24T10:01:11.365Z,34.57
2018-09-24T10:03:59.037Z,33.05
2018-09-24T10:06:47.047Z,30.53
2018-09-24T10:09:34.534Z,29.81
2018-09-24T10:12:21.928Z,31.10
2018-09-24T10:15:11.094Z,29.16
2018-09-24T10:17:57.884Z,32.88
2018-09-24T10:20:45.504Z,29.50
2018-09-24T10:23:33.925Z,33.27
2018-09-24T10:26:21.418Z,29.83
2018-09-24T10:29:07.984Z,31.71
2018-09-24T10:31:55.739Z,32.10
2018-09-24T10:34:43.586Z,32.02
2018-09-24T10:37:30.196Z,29.49
2018-09-24T10:40:16.521Z,31.71
2018-09-24T10:43:03.529Z,31.54
2018-09-24T10:45:50.082Z,33.54
2018-09-24T10:48:36.837Z,36.30
2018-09-24T10:51:23.439Z,39.13
2018-09-24T10:54:10.092Z,37.96
2018-09-24T10:56:56.585Z,38.68
2018-09-24T10:59:43.252Z,36.64
2018-09-24T11:02:29.821Z,35.60
2018-09-24T11:05:16.451Z,33.86
2018-09-24T11:08:02.856Z,32.05
2018-09-24T11:10:49.564Z,36.72
2018-09-24T11:13:35.887Z,33.18
2018-09-24T11:16:23.085Z,33.40
2018-09-24T11:19:09.592Z,34.16
2018-09-24T11:21:56.376Z,29.17
2018-09-24T11:24:43.192Z,30.65
2018-09-24T11:27:29.999Z,33.63
2018-09-24T11:30:16.648Z,33.37
2018-09-24T11:33:03.097Z,38.05
2018-09-24T11:35:49.739Z,42.79
2018-09-24T11:38:36.288Z,43.85
2018-09-24T11:41:23.073Z,42.89
2018-09-24T11:44:09.654Z,43.24
2018-09-24T11:46:56.225Z,42.29
2018-09-24T11:49:42.907Z,42.99
2018-09-24T11:52:29.526Z,41.83
2018-09-24T11:55:16.152Z,39.03
2018-09-24T11:58:02.433Z,39.08
2018-09-24T12:00:49.078Z,39.28
2018-09-24T12:03:35.629Z,39.79
2018-09-24T12:06:22.477Z,39.44
2018-09-24T12:09:09.007Z,38.65
2018-09-24T12:11:55.612Z,38.69
2018-09-24T12:14:42.233Z,38.74
2018-09-24T12:17:29.027Z,40.52
2018-09-24T12:20:15.890Z,40.97
2018-09-24T12:23:02.568Z,41.62
2018-09-24T12:25:49.609Z,40.88
2018-09-24T12:28:35.879Z,39.80
2018-09-24T12:31:22.601Z,40.07
2018-09-24T12:34:09.489Z,42.07
2018-09-24T12:36:55.914Z,43.96
2018-09-24T12:39:42.280Z,42.71
2018-09-24T12:42:28.828Z,42.19
2018-09-24T12:45:15.576Z,42.13
2018-09-24T12:48:02.202Z,41.96
2018-09-24T12:50:48.974Z,41.09
2018-09-24T12:53:35.750Z,41.02
2018-09-24T12:56:22.198Z,41.42
2018-09-24T12:59:08.808Z,41.67
2018-09-24T13:01:55.492Z,44.58
2018-09-24T13:04:42.268Z,44.77
2018-09-24T13:07:28.771Z,45.99
2018-09-24T13:10:15.712Z,46.71
2018-09-24T13:13:02.407Z,47.55
2018-09-24T13:15:48.999Z,48.16
2018-09-24T13:18:35.781Z,46.54
2018-09-24T13:21:22.205Z,44.11
2018-09-24T13:24:08.871Z,44.77
2018-09-24T13:26:55.467Z,43.49
2018-09-24T13:29:42.036Z,40.72
2018-09-24T13:32:28.630Z,40.44
2018-09-24T13:35:15.334Z,40.67
2018-09-24T13:38:01.982Z,40.33
2018-09-24T13:40:48.738Z,41.02
2018-09-24T13:43:35.762Z,41.66
2018-09-24T13:46:22.497Z,40.42
2018-09-24T13:49:09.274Z,38.74
2018-09-24T13:51:56.077Z,35.02
2018-09-24T13:54:42.634Z,36.14
2018-09-24T13:57:29.404Z,37.22
2018-09-24T14:00:16.169Z,36.72
2018-09-24T14:03:03.090Z,38.84
2018-09-24T14:05:49.591Z,38.83
2018-09-24T14:08:35.914Z,39.48
2018-09-24T14:11:22.456Z,40.30
2018-09-24T14:14:09.004Z,41.78
2018-09-24T14:16:55.549Z,45.67
2018-09-24T14:19:41.959Z,51.03
2018-09-24T14:22:28.411Z,50.98
2018-09-24T14:25:14.985Z,52.77
2018-09-24T14:28:01.945Z,54.29
2018-09-24T14:30:48.296Z,54.94
2018-09-24T14:33:34.871Z,56.23
2018-09-24T14:36:21.404Z,57.31
2018-09-24T14:39:07.749Z,58.53
2018-09-24T14:41:54.359Z,58.15
2018-09-24T14:44:41.340Z,58.42
2018-09-24T14:47:27.912Z,59.85
2018-09-24T14:50:14.811Z,59.30
2018-09-24T14:53:01.787Z,58.50
2018-09-24T14:55:48.304Z,59.43
2018-09-24T14:58:35.159Z,57.49
2018-09-24T15:01:21.971Z,55.26
2018-09-24T15:04:08.613Z,55.12
2018-09-24T15:06:55.164Z,51.03
2018-09-24T15:09:42.005Z,50.16
2018-09-24T15:12:28.652Z,48.87
2018-09-24T15:15:15.177Z,47.49
2018-09-24T15:18:01.538Z,47.20
2018-09-24T15:20:48.344Z,45.77
2018-09-24T15:23:34.677Z,46.62
2018-09-24T15:26:21.110Z,46.69
2018-09-24T15:29:07.685Z,46.42
2018-09-24T15:31:54.512Z,44.03
2018-09-24T15:34:41.288Z,45.70
2018-09-24T15:37:27.679Z,44.59
2018-09-24T15:40:14.046Z,44.18
2018-09-24T15:43:00.897Z,44.30
2018-09-24T15:45:47.281Z,43.69
2018-09-24T15:48:33.627Z,44.19
2018-09-24T15:51:20.282Z,45.84
2018-09-24T15:54:07.078Z,46.21
2018-09-24T15:56:53.716Z,48.38
2018-09-24T15:59:40.501Z,48.09
2018-09-24T16:02:27.219Z,48.95
2018-09-24T16:05:13.792Z,52.38
2018-09-24T16:08:00.398Z,53.25
2018-09-24T16:10:46.865Z,52.94
2018-09-24T16:13:33.714Z,54.22
2018-09-24T16:16:20.535Z,55.10
2018-09-24T16:19:07.171Z,55.63
2018-09-24T16:21:53.872Z,55.46
2018-09-24T16:24:40.559Z,56.86
2018-09-24T16:27:27.039Z,58.00
2018-09-24T16:30:13.760Z,57.37
2018-09-24T16:33:00.582Z,57.93
2018-09-24T16:35:47.247Z,57.79
2018-09-24T16:38:33.769Z,59.21
2018-09-24T16:41:20.081Z,58.75
2018-09-24T16:44:06.705Z,59.58
2018-09-24T16:46:53.060Z,59.42
2018-09-24T16:49:39.574Z,60.29
2018-09-24T16:52:26.347Z,60.43
2018-09-24T16:55:12.959Z,60.53
2018-09-24T16:57:59.594Z,61.16
2018-09-24T17:00:45.958Z,61.86
2018-09-24T17:03:32.752Z,62.36
2018-09-24T17:06:19.165Z,62.01
2018-09-24T17:09:06.218Z,61.81
2018-09-24T17:11:52.709Z,62.06
2018-09-24T17:14:39.311Z,63.63
2018-09-24T17:17:26.231Z,64.31
2018-09-24T17:20:12.728Z,64.82
2018-09-24T17:22:59.176Z,66.23
2018-09-24T17:25:45.742Z,67.74
2018-09-24T17:28:32.647Z,68.20
2018-09-24T17:31:19.173Z,67.98
2018-09-24T17:34:05.695Z,68.06
2018-09-24T17:36:52.398Z,68.45
2018-09-24T17:39:39.195Z,69.83
2018-09-24T17:42:25.648Z,70.83
2018-09-24T17:45:12.242Z,71.30
2018-09-24T17:47:58.571Z,72.94
2018-09-24T17:50:45.110Z,73.92
2018-09-24T17:53:31.793Z,74.83
2018-09-24T17:56:18.292Z,74.89
2018-09-24T17:59:04.632Z,75.31
2018-09-24T18:01:51.345Z,75.13
2018-09-24T18:04:38.096Z,75.48
2018-09-24T18:07:24.675Z,75.43
2018-09-24T18:10:11.205Z,75.61
2018-09-24T18:12:57.979Z,75.96
2018-09-24T18:15:44.549Z,76.08
2018-09-24T18:18:31.216Z,76.21
2018-09-24T18:21:17.687Z,74.88
2018-09-24T18:24:04.327Z,75.23
2018-09-24T18:26:50.732Z,73.84
2018-09-24T18:29:37.275Z,73.40
2018-09-24T18:32:23.876Z,73.48
2018-09-24T18:35:10.772Z,72.95
2018-09-24T18:37:57.686Z,73.78
2018-09-24T18:40:44.406Z,73.37
2018-09-24T18:43:31.157Z,73.71
2018-09-24T18:46:17.481Z,73.96
2018-09-24T18:49:03.875Z,74.15
2018-09-24T18:51:50.267Z,73.14
2018-09-24T18:54:37.050Z,73.70
2018-09-24T18:57:23.877Z,74.70
2018-09-24T19:00:10.402Z,75.34
2018-09-24T19:02:57.067Z,75.36
2018-09-24T19:05:43.690Z,75.42
2018-09-24T19:08:30.517Z,76.05
2018-09-24T19:11:27.645Z,76.31
2018-09-24T19:14:03.780Z,76.53
2018-09-24T19:16:50.134Z,76.67
2018-09-24T19:19:36.415Z,76.88
2018-09-24T19:22:22.756Z,77.09
2018-09-24T19:25:09.303Z,76.19
2018-09-24T19:27:55.614Z,76.65
2018-09-24T19:30:42.384Z,76.88
2018-09-24T19:33:29.274Z,76.82
2018-09-24T19:36:16.110Z,77.06
2018-09-24T19:39:02.898Z,75.71
2018-09-24T19:41:49.852Z,76.95
2018-09-24T19:44:36.645Z,77.06
2018-09-24T19:47:23.289Z,76.83
2018-09-24T19:50:10.184Z,76.93
2018-09-24T19:52:56.770Z,76.78
2018-09-24T19:55:43.269Z,76.92
2018-09-24T19:58:29.773Z,77.03
2018-09-24T20:01:16.697Z,77.50
2018-09-24T20:04:03.083Z,77.25
2018-09-24T20:06:49.700Z,77.52
2018-09-24T20:09:36.169Z,77.09
2018-09-24T20:12:22.988Z,76.72
2018-09-24T20:15:09.717Z,77.16
2018-09-24T20:17:56.701Z,77.15
2018-09-24T20:20:43.443Z,77.05
2018-09-24T20:23:29.816Z,76.22
2018-09-24T20:26:16.342Z,76.99
2018-09-24T20:29:02.963Z,76.87
2018-09-24T20:31:49.429Z,76.81
2018-09-24T20:34:35.809Z,76.68
2018-09-24T20:37:22.524Z,76.71
2018-09-24T20:40:09.010Z,76.48
2018-09-24T20:42:56.010Z,76.82
2018-09-24T20:45:42.803Z,76.35
2018-09-24T20:48:29.276Z,76.28
2018-09-24T20:51:16.342Z,76.27
2018-09-24T20:54:02.949Z,75.22
2018-09-24T20:56:49.362Z,75.57
2018-09-24T20:59:35.724Z,75.61
2018-09-24T21:02:22.209Z,76.16
2018-09-24T21:05:08.525Z,76.40
2018-09-24T21:07:54.876Z,74.79
2018-09-24T21:10:41.525Z,75.44
2018-09-24T21:13:28.288Z,75.48
2018-09-24T21:16:15.195Z,75.71
2018-09-24T21:19:02.086Z,76.06
2018-09-24T21:21:48.420Z,76.67
2018-09-24T21:24:34.922Z,76.81
2018-09-24T21:27:21.735Z,77.35
2018-09-24T21:30:08.082Z,77.52
2018-09-24T21:32:54.863Z,77.59
2018-09-24T21:35:41.355Z,78.33
2018-09-24T21:38:28.174Z,78.23
2018-09-24T21:41:14.486Z,78.66
2018-09-24T21:44:01.146Z,78.58
2018-09-24T21:46:47.572Z,78.24
2018-09-24T21:49:34.309Z,78.31
2018-09-24T21:52:21.339Z,78.50
2018-09-24T21:55:07.609Z,77.43
2018-09-24T21:57:54.324Z,78.71
2018-09-24T22:00:41.439Z,78.56
2018-09-24T22:03:28.252Z,76.78
2018-09-24T22:06:14.697Z,78.22
2018-09-24T22:09:01.257Z,78.73
2018-09-24T22:11:47.683Z,78.85
2018-09-24T22:14:34.469Z,79.18
2018-09-24T22:17:20.764Z,78.92
2018-09-24T22:20:07.149Z,79.22
2018-09-24T22:22:53.906Z,76.96
2018-09-24T22:25:40.691Z,78.06
2018-09-24T22:28:27.060Z,78.27
2018-09-24T22:31:13.371Z,76.76
2018-09-24T22:33:59.948Z,77.99
2018-09-24T22:36:46.290Z,78.00
2018-09-24T22:39:33.132Z,78.10
2018-09-24T22:42:19.712Z,78.50
2018-09-24T22:45:06.519Z,79.11
2018-09-24T22:47:53.233Z,78.99
2018-09-24T22:50:40.069Z,77.33
2018-09-24T22:53:26.643Z,78.52
2018-09-24T22:56:13.450Z,78.79
2018-09-24T22:58:59.883Z,78.70
2018-09-24T23:01:46.629Z,78.89
2018-09-24T23:04:32.997Z,78.97
2018-09-24T23:07:19.867Z,78.93
2018-09-24T23:10:06.266Z,78.90
2018-09-24T23:12:53.031Z,78.83
2018-09-24T23:15:39.711Z,78.97
2018-09-24T23:18:26.059Z,78.99
2018-09-24T23:21:12.704Z,78.76
2018-09-24T23:23:59.224Z,79.23
2018-09-24T23:26:45.598Z,79.00
2018-09-24T23:29:32.004Z,78.89
2018-09-24T23:32:18.704Z,78.74
2018-09-24T23:35:05.180Z,79.05
2018-09-24T23:37:51.791Z,78.78
2018-09-24T23:40:38.600Z,78.10
2018-09-24T23:43:25.234Z,77.88
2018-09-24T23:46:12.050Z,78.37
2018-09-24T23:48:58.407Z,78.20
2018-09-24T23:51:45.413Z,78.66
2018-09-24T23:54:32.205Z,78.50
2018-09-24T23:57:18.979Z,78.39
